sensor_id;sensor_type;location;lat;lon;timestamp;temperature;humidity
65972;SHT31;52726;48.852;9.152;2023-07-20T00:01:22;18.87;61.12
65972;SHT31;52726;48.852;9.152;2023-07-20T00:03:47;18.87;61.61
65972;SHT31;52726;48.852;9.152;2023-07-20T00:06:29;18.76;62.14
65972;SHT31;52726;48.852;9.152;2023-07-20T00:08:55;18.74;61.91
65972;SHT31;52726;48.852;9.152;2023-07-20T00:11:21;18.68;61.63
65972;SHT31;52726;48.852;9.152;2023-07-20T00:13:46;18.67;62.01
65972;SHT31;52726;48.852;9.152;2023-07-20T00:16:11;18.61;61.62
65972;SHT31;52726;48.852;9.152;2023-07-20T00:18:37;18.59;61.39
65972;SHT31;52726;48.852;9.152;2023-07-20T00:21:02;18.56;61.43
65972;SHT31;52726;48.852;9.152;2023-07-20T00:23:28;18.52;61.25
65972;SHT31;52726;48.852;9.152;2023-07-20T00:26:12;18.46;61.22
65972;SHT31;52726;48.852;9.152;2023-07-20T00:28:37;18.40;61.70
65972;SHT31;52726;48.852;9.152;2023-07-20T00:31:03;18.32;61.57
65972;SHT31;52726;48.852;9.152;2023-07-20T00:33:29;18.25;61.60
65972;SHT31;52726;48.852;9.152;2023-07-20T00:39:14;18.09;61.32
65972;SHT31;52726;48.852;9.152;2023-07-20T00:41:40;18.04;61.56
65972;SHT31;52726;48.852;9.152;2023-07-20T00:44:05;17.97;61.44
65972;SHT31;52726;48.852;9.152;2023-07-20T00:46:31;17.92;60.79
65972;SHT31;52726;48.852;9.152;2023-07-20T00:48:58;17.91;61.09
65972;SHT31;52726;48.852;9.152;2023-07-20T00:51:25;17.88;60.49
65972;SHT31;52726;48.852;9.152;2023-07-20T00:54:00;17.85;60.59
65972;SHT31;52726;48.852;9.152;2023-07-20T00:56:26;17.82;60.36
65972;SHT31;52726;48.852;9.152;2023-07-20T01:02:01;17.78;60.79
65972;SHT31;52726;48.852;9.152;2023-07-20T01:04:27;17.74;60.51
65972;SHT31;52726;48.852;9.152;2023-07-20T01:07:17;17.71;60.51
65972;SHT31;52726;48.852;9.152;2023-07-20T01:09:52;17.69;61.30
65972;SHT31;52726;48.852;9.152;2023-07-20T01:12:41;17.64;61.18
65972;SHT31;52726;48.852;9.152;2023-07-20T01:15:07;17.59;61.54
65972;SHT31;52726;48.852;9.152;2023-07-20T01:17:34;17.54;61.54
65972;SHT31;52726;48.852;9.152;2023-07-20T01:19:59;17.50;61.19
65972;SHT31;52726;48.852;9.152;2023-07-20T01:29:01;17.42;62.03
65972;SHT31;52726;48.852;9.152;2023-07-20T01:31:31;17.37;61.90
65972;SHT31;52726;48.852;9.152;2023-07-20T01:34:00;17.35;62.44
65972;SHT31;52726;48.852;9.152;2023-07-20T01:36:33;17.33;62.14
65972;SHT31;52726;48.852;9.152;2023-07-20T01:38:59;17.30;62.72
65972;SHT31;52726;48.852;9.152;2023-07-20T01:41:25;17.29;62.99
65972;SHT31;52726;48.852;9.152;2023-07-20T01:43:51;17.26;62.95
65972;SHT31;52726;48.852;9.152;2023-07-20T01:46:16;17.23;63.41
65972;SHT31;52726;48.852;9.152;2023-07-20T01:48:41;17.18;63.53
65972;SHT31;52726;48.852;9.152;2023-07-20T01:51:07;17.08;64.02
65972;SHT31;52726;48.852;9.152;2023-07-20T01:53:32;17.02;63.99
65972;SHT31;52726;48.852;9.152;2023-07-20T01:55:58;17.01;64.10
65972;SHT31;52726;48.852;9.152;2023-07-20T01:58:23;16.96;64.62
65972;SHT31;52726;48.852;9.152;2023-07-20T02:00:49;16.88;64.52
65972;SHT31;52726;48.852;9.152;2023-07-20T02:03:15;16.87;64.99
65972;SHT31;52726;48.852;9.152;2023-07-20T02:05:44;16.79;65.25
65972;SHT31;52726;48.852;9.152;2023-07-20T02:08:09;16.78;65.54
65972;SHT31;52726;48.852;9.152;2023-07-20T02:10:35;16.71;65.39
65972;SHT31;52726;48.852;9.152;2023-07-20T02:13:00;16.67;65.82
65972;SHT31;52726;48.852;9.152;2023-07-20T02:15:25;16.68;65.55
65972;SHT31;52726;48.852;9.152;2023-07-20T02:17:51;16.65;66.13
65972;SHT31;52726;48.852;9.152;2023-07-20T02:20:17;16.64;65.93
65972;SHT31;52726;48.852;9.152;2023-07-20T02:22:43;16.57;65.59
65972;SHT31;52726;48.852;9.152;2023-07-20T02:25:08;16.50;66.81
65972;SHT31;52726;48.852;9.152;2023-07-20T02:27:34;16.46;67.01
65972;SHT31;52726;48.852;9.152;2023-07-20T02:30:00;16.39;66.89
65972;SHT31;52726;48.852;9.152;2023-07-20T02:32:25;16.31;66.98
65972;SHT31;52726;48.852;9.152;2023-07-20T02:34:51;16.26;67.88
65972;SHT31;52726;48.852;9.152;2023-07-20T02:37:17;16.20;67.74
65972;SHT31;52726;48.852;9.152;2023-07-20T02:39:42;16.09;67.91
65972;SHT31;52726;48.852;9.152;2023-07-20T02:42:08;16.06;68.91
65972;SHT31;52726;48.852;9.152;2023-07-20T02:44:33;15.99;68.75
65972;SHT31;52726;48.852;9.152;2023-07-20T02:46:58;15.95;69.08
65972;SHT31;52726;48.852;9.152;2023-07-20T02:49:24;15.96;68.74
65972;SHT31;52726;48.852;9.152;2023-07-20T02:51:49;15.89;69.31
65972;SHT31;52726;48.852;9.152;2023-07-20T02:54:15;15.82;69.82
65972;SHT31;52726;48.852;9.152;2023-07-20T02:56:40;15.77;70.38
65972;SHT31;52726;48.852;9.152;2023-07-20T02:59:06;15.72;70.24
65972;SHT31;52726;48.852;9.152;2023-07-20T03:01:31;15.71;70.23
65972;SHT31;52726;48.852;9.152;2023-07-20T03:03:57;15.68;69.68
65972;SHT31;52726;48.852;9.152;2023-07-20T03:06:22;15.65;70.49
65972;SHT31;52726;48.852;9.152;2023-07-20T03:08:48;15.66;70.08
65972;SHT31;52726;48.852;9.152;2023-07-20T03:11:16;15.64;70.14
65972;SHT31;52726;48.852;9.152;2023-07-20T03:13:42;15.64;70.34
65972;SHT31;52726;48.852;9.152;2023-07-20T03:16:08;15.61;70.54
65972;SHT31;52726;48.852;9.152;2023-07-20T03:18:37;15.62;70.76
65972;SHT31;52726;48.852;9.152;2023-07-20T03:21:03;15.62;71.01
65972;SHT31;52726;48.852;9.152;2023-07-20T03:23:29;15.61;70.65
65972;SHT31;52726;48.852;9.152;2023-07-20T03:25:54;15.55;70.55
65972;SHT31;52726;48.852;9.152;2023-07-20T03:28:20;15.55;70.63
65972;SHT31;52726;48.852;9.152;2023-07-20T03:30:45;15.54;70.59
65972;SHT31;52726;48.852;9.152;2023-07-20T03:33:11;15.51;71.23
65972;SHT31;52726;48.852;9.152;2023-07-20T03:35:37;15.51;70.69
65972;SHT31;52726;48.852;9.152;2023-07-20T03:38:02;15.47;71.67
65972;SHT31;52726;48.852;9.152;2023-07-20T03:40:28;15.47;71.18
65972;SHT31;52726;48.852;9.152;2023-07-20T03:42:53;15.45;70.84
65972;SHT31;52726;48.852;9.152;2023-07-20T03:45:18;15.44;71.25
65972;SHT31;52726;48.852;9.152;2023-07-20T03:47:44;15.38;70.60
65972;SHT31;52726;48.852;9.152;2023-07-20T03:50:10;15.37;71.76
65972;SHT31;52726;48.852;9.152;2023-07-20T03:52:35;15.36;72.29
65972;SHT31;52726;48.852;9.152;2023-07-20T03:55:01;15.33;72.32
65972;SHT31;52726;48.852;9.152;2023-07-20T03:57:26;15.31;71.93
65972;SHT31;52726;48.852;9.152;2023-07-20T03:59:52;15.28;72.00
65972;SHT31;52726;48.852;9.152;2023-07-20T04:02:18;15.34;72.40
65972;SHT31;52726;48.852;9.152;2023-07-20T04:04:43;15.33;71.16
65972;SHT31;52726;48.852;9.152;2023-07-20T04:07:09;15.31;71.63
65972;SHT31;52726;48.852;9.152;2023-07-20T04:09:34;15.33;71.66
65972;SHT31;52726;48.852;9.152;2023-07-20T04:11:59;15.34;71.86
65972;SHT31;52726;48.852;9.152;2023-07-20T04:14:25;15.34;72.27
65972;SHT31;52726;48.852;9.152;2023-07-20T04:16:50;15.38;72.23
65972;SHT31;52726;48.852;9.152;2023-07-20T04:19:17;15.37;72.04
65972;SHT31;52726;48.852;9.152;2023-07-20T04:21:43;15.40;72.39
65972;SHT31;52726;48.852;9.152;2023-07-20T04:24:09;15.45;72.46
65972;SHT31;52726;48.852;9.152;2023-07-20T04:26:34;15.55;72.36
65972;SHT31;52726;48.852;9.152;2023-07-20T04:29:00;15.57;72.20
65972;SHT31;52726;48.852;9.152;2023-07-20T04:31:26;15.59;71.73
65972;SHT31;52726;48.852;9.152;2023-07-20T04:33:51;15.61;71.75
65972;SHT31;52726;48.852;9.152;2023-07-20T04:36:17;15.62;72.48
65972;SHT31;52726;48.852;9.152;2023-07-20T04:38:47;15.65;72.43
65972;SHT31;52726;48.852;9.152;2023-07-20T04:41:12;15.69;72.24
65972;SHT31;52726;48.852;9.152;2023-07-20T04:43:42;15.69;72.09
65972;SHT31;52726;48.852;9.152;2023-07-20T04:46:09;15.74;71.99
65972;SHT31;52726;48.852;9.152;2023-07-20T04:48:34;15.78;71.58
65972;SHT31;52726;48.852;9.152;2023-07-20T04:50:59;15.85;71.69
65972;SHT31;52726;48.852;9.152;2023-07-20T04:53:25;15.88;71.57
65972;SHT31;52726;48.852;9.152;2023-07-20T04:55:50;15.92;71.35
65972;SHT31;52726;48.852;9.152;2023-07-20T04:58:17;15.96;71.52
65972;SHT31;52726;48.852;9.152;2023-07-20T05:00:43;16.05;71.62
65972;SHT31;52726;48.852;9.152;2023-07-20T05:03:09;16.09;71.03
65972;SHT31;52726;48.852;9.152;2023-07-20T05:05:34;16.14;71.26
65972;SHT31;52726;48.852;9.152;2023-07-20T05:08:00;16.23;70.77
65972;SHT31;52726;48.852;9.152;2023-07-20T05:10:25;16.27;71.45
65972;SHT31;52726;48.852;9.152;2023-07-20T05:12:51;16.30;71.27
65972;SHT31;52726;48.852;9.152;2023-07-20T05:15:16;16.39;71.14
65972;SHT31;52726;48.852;9.152;2023-07-20T05:17:41;16.46;70.42
65972;SHT31;52726;48.852;9.152;2023-07-20T05:20:07;16.47;71.12
65972;SHT31;52726;48.852;9.152;2023-07-20T05:22:35;16.54;70.54
65972;SHT31;52726;48.852;9.152;2023-07-20T05:25:00;16.58;70.24
65972;SHT31;52726;48.852;9.152;2023-07-20T05:27:26;16.67;70.31
65972;SHT31;52726;48.852;9.152;2023-07-20T05:29:51;16.74;70.80
65972;SHT31;52726;48.852;9.152;2023-07-20T05:32:16;16.78;70.67
65972;SHT31;52726;48.852;9.152;2023-07-20T05:34:42;16.85;70.30
65972;SHT31;52726;48.852;9.152;2023-07-20T05:37:07;16.92;70.57
65972;SHT31;52726;48.852;9.152;2023-07-20T05:39:33;16.95;70.35
65972;SHT31;52726;48.852;9.152;2023-07-20T05:41:58;17.05;70.33
65972;SHT31;52726;48.852;9.152;2023-07-20T05:44:23;17.11;70.45
65972;SHT31;52726;48.852;9.152;2023-07-20T05:46:49;17.20;70.51
65972;SHT31;52726;48.852;9.152;2023-07-20T05:49:14;17.29;70.60
65972;SHT31;52726;48.852;9.152;2023-07-20T05:51:39;17.39;69.51
65972;SHT31;52726;48.852;9.152;2023-07-20T05:54:05;17.50;69.17
65972;SHT31;52726;48.852;9.152;2023-07-20T05:56:31;17.63;69.41
65972;SHT31;52726;48.852;9.152;2023-07-20T05:58:56;17.71;68.85
65972;SHT31;52726;48.852;9.152;2023-07-20T06:01:21;17.84;68.96
65972;SHT31;52726;48.852;9.152;2023-07-20T06:03:47;17.97;68.37
65972;SHT31;52726;48.852;9.152;2023-07-20T06:06:12;18.08;68.35
65972;SHT31;52726;48.852;9.152;2023-07-20T06:08:38;18.24;67.67
65972;SHT31;52726;48.852;9.152;2023-07-20T06:11:03;18.36;67.77
65972;SHT31;52726;48.852;9.152;2023-07-20T06:13:29;18.53;66.97
65972;SHT31;52726;48.852;9.152;2023-07-20T06:15:54;18.68;66.09
65972;SHT31;52726;48.852;9.152;2023-07-20T06:18:22;18.90;65.55
65972;SHT31;52726;48.852;9.152;2023-07-20T06:20:51;19.01;64.34
65972;SHT31;52726;48.852;9.152;2023-07-20T06:23:18;19.19;64.27
65972;SHT31;52726;48.852;9.152;2023-07-20T06:25:44;19.41;63.79
65972;SHT31;52726;48.852;9.152;2023-07-20T06:28:09;19.59;63.50
65972;SHT31;52726;48.852;9.152;2023-07-20T06:30:38;19.73;62.18
65972;SHT31;52726;48.852;9.152;2023-07-20T06:33:03;19.93;62.13
65972;SHT31;52726;48.852;9.152;2023-07-20T06:35:28;20.14;61.48
65972;SHT31;52726;48.852;9.152;2023-07-20T06:37:54;20.35;61.00
65972;SHT31;52726;48.852;9.152;2023-07-20T06:40:21;20.59;60.17
65972;SHT31;52726;48.852;9.152;2023-07-20T06:42:49;21.11;58.84
65972;SHT31;52726;48.852;9.152;2023-07-20T06:45:18;21.77;57.48
65972;SHT31;52726;48.852;9.152;2023-07-20T06:47:49;22.14;56.52
65972;SHT31;52726;48.852;9.152;2023-07-20T06:50:18;22.39;54.65
65972;SHT31;52726;48.852;9.152;2023-07-20T06:52:44;22.54;54.48
65972;SHT31;52726;48.852;9.152;2023-07-20T06:55:09;23.08;54.31
65972;SHT31;52726;48.852;9.152;2023-07-20T06:57:38;23.54;52.08
65972;SHT31;52726;48.852;9.152;2023-07-20T07:00:04;24.21;51.58
65972;SHT31;52726;48.852;9.152;2023-07-20T07:02:31;24.70;50.54
65972;SHT31;52726;48.852;9.152;2023-07-20T07:04:57;24.97;49.53
65972;SHT31;52726;48.852;9.152;2023-07-20T07:07:22;24.95;49.40
65972;SHT31;52726;48.852;9.152;2023-07-20T07:09:47;24.92;49.77
65972;SHT31;52726;48.852;9.152;2023-07-20T07:12:13;25.21;48.86
65972;SHT31;52726;48.852;9.152;2023-07-20T07:14:39;25.03;48.19
65972;SHT31;52726;48.852;9.152;2023-07-20T07:17:04;24.59;48.74
65972;SHT31;52726;48.852;9.152;2023-07-20T07:19:30;24.48;49.04
65972;SHT31;52726;48.852;9.152;2023-07-20T07:21:56;23.36;50.53
65972;SHT31;52726;48.852;9.152;2023-07-20T07:27:43;23.97;49.74
65972;SHT31;52726;48.852;9.152;2023-07-20T07:30:08;24.36;49.49
65972;SHT31;52726;48.852;9.152;2023-07-20T07:32:34;23.54;52.61
65972;SHT31;52726;48.852;9.152;2023-07-20T07:34:59;23.15;52.50
65972;SHT31;52726;48.852;9.152;2023-07-20T07:37:25;23.74;51.81
65972;SHT31;52726;48.852;9.152;2023-07-20T07:39:51;22.90;50.92
65972;SHT31;52726;48.852;9.152;2023-07-20T07:42:16;23.87;50.22
65972;SHT31;52726;48.852;9.152;2023-07-20T07:44:41;24.19;49.02
65972;SHT31;52726;48.852;9.152;2023-07-20T07:47:07;23.51;52.15
65972;SHT31;52726;48.852;9.152;2023-07-20T07:49:32;23.47;51.48
65972;SHT31;52726;48.852;9.152;2023-07-20T07:51:58;23.23;52.00
65972;SHT31;52726;48.852;9.152;2023-07-20T07:54:23;22.84;52.36
65972;SHT31;52726;48.852;9.152;2023-07-20T07:56:54;23.43;51.53
65972;SHT31;52726;48.852;9.152;2023-07-20T07:59:42;24.35;49.41
65972;SHT31;52726;48.852;9.152;2023-07-20T08:02:07;23.74;50.05
65972;SHT31;52726;48.852;9.152;2023-07-20T08:04:33;24.35;48.75
65972;SHT31;52726;48.852;9.152;2023-07-20T08:06:59;24.90;48.47
65972;SHT31;52726;48.852;9.152;2023-07-20T08:09:24;24.80;46.97
65972;SHT31;52726;48.852;9.152;2023-07-20T08:11:51;23.61;49.47
65972;SHT31;52726;48.852;9.152;2023-07-20T08:14:16;23.53;49.83
65972;SHT31;52726;48.852;9.152;2023-07-20T08:16:41;23.60;49.16
65972;SHT31;52726;48.852;9.152;2023-07-20T08:19:08;24.18;48.22
65972;SHT31;52726;48.852;9.152;2023-07-20T08:21:36;25.29;47.99
65972;SHT31;52726;48.852;9.152;2023-07-20T08:24:07;24.76;47.83
65972;SHT31;52726;48.852;9.152;2023-07-20T08:26:33;24.52;47.93
65972;SHT31;52726;48.852;9.152;2023-07-20T08:28:58;23.95;48.60
65972;SHT31;52726;48.852;9.152;2023-07-20T08:31:24;23.95;48.92
65972;SHT31;52726;48.852;9.152;2023-07-20T08:33:49;24.25;50.06
65972;SHT31;52726;48.852;9.152;2023-07-20T08:36:15;25.15;47.34
65972;SHT31;52726;48.852;9.152;2023-07-20T08:38:41;25.07;46.35
65972;SHT31;52726;48.852;9.152;2023-07-20T08:41:06;24.73;48.73
65972;SHT31;52726;48.852;9.152;2023-07-20T08:43:33;24.15;48.47
65972;SHT31;52726;48.852;9.152;2023-07-20T08:45:58;23.63;48.77
65972;SHT31;52726;48.852;9.152;2023-07-20T08:48:24;23.01;50.47
65972;SHT31;52726;48.852;9.152;2023-07-20T08:50:52;22.91;50.38
65972;SHT31;52726;48.852;9.152;2023-07-20T08:53:21;24.26;49.03
65972;SHT31;52726;48.852;9.152;2023-07-20T08:55:48;25.27;47.33
65972;SHT31;52726;48.852;9.152;2023-07-20T08:58:15;24.90;46.30
65972;SHT31;52726;48.852;9.152;2023-07-20T09:00:41;24.94;44.56
65972;SHT31;52726;48.852;9.152;2023-07-20T09:03:07;24.32;46.81
65972;SHT31;52726;48.852;9.152;2023-07-20T09:05:33;23.49;48.78
65972;SHT31;52726;48.852;9.152;2023-07-20T09:08:00;23.18;50.16
65972;SHT31;52726;48.852;9.152;2023-07-20T09:10:26;23.78;48.41
65972;SHT31;52726;48.852;9.152;2023-07-20T09:12:51;24.95;47.76
65972;SHT31;52726;48.852;9.152;2023-07-20T09:15:17;24.73;46.58
65972;SHT31;52726;48.852;9.152;2023-07-20T09:17:46;24.76;47.87
65972;SHT31;52726;48.852;9.152;2023-07-20T09:20:14;24.94;45.76
65972;SHT31;52726;48.852;9.152;2023-07-20T09:22:40;25.11;47.22
65972;SHT31;52726;48.852;9.152;2023-07-20T09:25:13;25.50;44.30
65972;SHT31;52726;48.852;9.152;2023-07-20T09:28:18;25.82;42.45
65972;SHT31;52726;48.852;9.152;2023-07-20T09:30:44;26.17;42.59
65972;SHT31;52726;48.852;9.152;2023-07-20T09:33:18;24.73;42.71
65972;SHT31;52726;48.852;9.152;2023-07-20T09:35:44;23.84;43.52
65972;SHT31;52726;48.852;9.152;2023-07-20T09:38:10;23.59;43.56
65972;SHT31;52726;48.852;9.152;2023-07-20T09:40:39;24.25;43.50
65972;SHT31;52726;48.852;9.152;2023-07-20T09:43:07;25.06;41.24
65972;SHT31;52726;48.852;9.152;2023-07-20T09:45:34;25.28;42.32
65972;SHT31;52726;48.852;9.152;2023-07-20T09:48:08;24.79;43.93
65972;SHT31;52726;48.852;9.152;2023-07-20T09:50:56;24.59;43.35
65972;SHT31;52726;48.852;9.152;2023-07-20T09:56:51;24.57;41.48
65972;SHT31;52726;48.852;9.152;2023-07-20T09:59:17;24.37;42.23
65972;SHT31;52726;48.852;9.152;2023-07-20T10:01:43;24.88;41.61
65972;SHT31;52726;48.852;9.152;2023-07-20T10:04:11;25.75;40.71
65972;SHT31;52726;48.852;9.152;2023-07-20T10:06:42;25.52;38.91
65972;SHT31;52726;48.852;9.152;2023-07-20T10:09:10;25.17;39.06
65972;SHT31;52726;48.852;9.152;2023-07-20T10:11:36;25.14;40.07
65972;SHT31;52726;48.852;9.152;2023-07-20T10:14:07;25.22;39.68
65972;SHT31;52726;48.852;9.152;2023-07-20T10:16:43;25.17;38.74
65972;SHT31;52726;48.852;9.152;2023-07-20T10:19:27;25.52;39.46
65972;SHT31;52726;48.852;9.152;2023-07-20T10:21:59;26.24;39.27
65972;SHT31;52726;48.852;9.152;2023-07-20T10:24:26;26.16;39.49
65972;SHT31;52726;48.852;9.152;2023-07-20T10:26:54;26.13;38.26
65972;SHT31;52726;48.852;9.152;2023-07-20T10:29:20;26.24;37.53
65972;SHT31;52726;48.852;9.152;2023-07-20T10:31:46;26.07;37.10
65972;SHT31;52726;48.852;9.152;2023-07-20T10:34:12;25.72;37.01
65972;SHT31;52726;48.852;9.152;2023-07-20T10:36:44;25.45;37.23
65972;SHT31;52726;48.852;9.152;2023-07-20T10:39:32;25.45;37.95
65972;SHT31;52726;48.852;9.152;2023-07-20T10:42:07;25.22;38.48
65972;SHT31;52726;48.852;9.152;2023-07-20T10:44:33;25.21;38.29
65972;SHT31;52726;48.852;9.152;2023-07-20T10:47:03;25.15;36.73
65972;SHT31;52726;48.852;9.152;2023-07-20T10:49:33;25.27;38.20
65972;SHT31;52726;48.852;9.152;2023-07-20T10:52:00;25.37;38.33
65972;SHT31;52726;48.852;9.152;2023-07-20T10:56:56;25.94;37.48
65972;SHT31;52726;48.852;9.152;2023-07-20T11:01:59;25.72;38.06
65972;SHT31;52726;48.852;9.152;2023-07-20T11:04:44;25.27;36.57
65972;SHT31;52726;48.852;9.152;2023-07-20T11:07:10;25.22;37.75
65972;SHT31;52726;48.852;9.152;2023-07-20T11:09:39;25.75;38.29
65972;SHT31;52726;48.852;9.152;2023-07-20T11:12:13;25.67;35.89
65972;SHT31;52726;48.852;9.152;2023-07-20T11:14:55;25.89;36.63
65972;SHT31;52726;48.852;9.152;2023-07-20T11:17:29;25.72;36.46
65972;SHT31;52726;48.852;9.152;2023-07-20T11:19:58;25.35;37.86
65972;SHT31;52726;48.852;9.152;2023-07-20T11:22:26;24.64;37.20
65972;SHT31;52726;48.852;9.152;2023-07-20T11:24:55;24.67;37.23
65972;SHT31;52726;48.852;9.152;2023-07-20T11:27:20;25.34;36.44
65972;SHT31;52726;48.852;9.152;2023-07-20T11:29:48;26.21;35.93
65972;SHT31;52726;48.852;9.152;2023-07-20T11:32:23;25.90;34.10
65972;SHT31;52726;48.852;9.152;2023-07-20T11:34:48;25.70;35.40
65972;SHT31;52726;48.852;9.152;2023-07-20T11:37:15;25.56;35.83
65972;SHT31;52726;48.852;9.152;2023-07-20T11:39:40;25.65;36.74
65972;SHT31;52726;48.852;9.152;2023-07-20T11:42:06;25.45;37.37
65972;SHT31;52726;48.852;9.152;2023-07-20T11:44:32;26.03;38.48
65972;SHT31;52726;48.852;9.152;2023-07-20T11:47:07;26.25;39.88
65972;SHT31;52726;48.852;9.152;2023-07-20T11:49:43;26.35;35.49
65972;SHT31;52726;48.852;9.152;2023-07-20T11:52:14;26.08;36.55
65972;SHT31;52726;48.852;9.152;2023-07-20T11:54:41;26.20;34.97
65972;SHT31;52726;48.852;9.152;2023-07-20T11:57:07;25.92;34.05
65972;SHT31;52726;48.852;9.152;2023-07-20T11:59:33;26.34;34.36
65972;SHT31;52726;48.852;9.152;2023-07-20T12:02:01;26.62;34.87
65972;SHT31;52726;48.852;9.152;2023-07-20T12:04:26;26.27;34.41
65972;SHT31;52726;48.852;9.152;2023-07-20T12:06:53;25.84;36.68
65972;SHT31;52726;48.852;9.152;2023-07-20T12:09:19;26.01;37.01
65972;SHT31;52726;48.852;9.152;2023-07-20T12:11:45;25.89;37.42
65972;SHT31;52726;48.852;9.152;2023-07-20T12:14:11;25.98;37.23
65972;SHT31;52726;48.852;9.152;2023-07-20T12:16:37;26.16;35.76
65972;SHT31;52726;48.852;9.152;2023-07-20T12:19:10;26.17;35.83
65972;SHT31;52726;48.852;9.152;2023-07-20T12:21:37;26.40;35.30
65972;SHT31;52726;48.852;9.152;2023-07-20T12:24:03;26.18;34.41
65972;SHT31;52726;48.852;9.152;2023-07-20T12:26:31;26.25;36.53
65972;SHT31;52726;48.852;9.152;2023-07-20T12:28:57;26.01;36.41
65972;SHT31;52726;48.852;9.152;2023-07-20T12:31:23;25.98;35.16
65972;SHT31;52726;48.852;9.152;2023-07-20T12:33:50;25.63;35.05
65972;SHT31;52726;48.852;9.152;2023-07-20T12:36:16;26.04;36.47
65972;SHT31;52726;48.852;9.152;2023-07-20T12:38:42;26.52;36.04
65972;SHT31;52726;48.852;9.152;2023-07-20T12:41:10;26.28;34.44
65972;SHT31;52726;48.852;9.152;2023-07-20T12:43:37;26.27;35.05
65972;SHT31;52726;48.852;9.152;2023-07-20T12:46:03;26.44;36.42
65972;SHT31;52726;48.852;9.152;2023-07-20T12:48:28;26.65;35.84
65972;SHT31;52726;48.852;9.152;2023-07-20T12:50:54;26.45;37.03
65972;SHT31;52726;48.852;9.152;2023-07-20T12:53:20;26.35;35.08
65972;SHT31;52726;48.852;9.152;2023-07-20T12:55:46;26.25;34.78
65972;SHT31;52726;48.852;9.152;2023-07-20T12:58:12;26.44;34.51
65972;SHT31;52726;48.852;9.152;2023-07-20T13:00:38;26.86;34.95
65972;SHT31;52726;48.852;9.152;2023-07-20T13:03:04;27.02;34.72
65972;SHT31;52726;48.852;9.152;2023-07-20T13:05:31;26.88;33.36
65972;SHT31;52726;48.852;9.152;2023-07-20T13:08:00;27.03;34.62
65972;SHT31;52726;48.852;9.152;2023-07-20T13:10:25;27.43;34.08
65972;SHT31;52726;48.852;9.152;2023-07-20T13:12:50;27.45;32.54
65972;SHT31;52726;48.852;9.152;2023-07-20T13:15:17;27.03;32.35
65972;SHT31;52726;48.852;9.152;2023-07-20T13:17:42;26.03;33.35
65972;SHT31;52726;48.852;9.152;2023-07-20T13:20:09;26.23;34.59
65972;SHT31;52726;48.852;9.152;2023-07-20T13:22:37;26.38;35.79
65972;SHT31;52726;48.852;9.152;2023-07-20T13:25:02;26.44;36.63
65972;SHT31;52726;48.852;9.152;2023-07-20T13:27:28;26.30;36.87
65972;SHT31;52726;48.852;9.152;2023-07-20T13:29:53;25.90;35.14
65972;SHT31;52726;48.852;9.152;2023-07-20T13:32:19;26.34;37.72
65972;SHT31;52726;48.852;9.152;2023-07-20T13:34:45;26.49;34.14
65972;SHT31;52726;48.852;9.152;2023-07-20T13:37:11;26.48;35.08
65972;SHT31;52726;48.852;9.152;2023-07-20T13:39:38;26.75;35.46
65972;SHT31;52726;48.852;9.152;2023-07-20T13:42:04;26.75;33.55
65972;SHT31;52726;48.852;9.152;2023-07-20T13:44:37;26.98;34.66
65972;SHT31;52726;48.852;9.152;2023-07-20T13:47:05;26.71;32.16
65972;SHT31;52726;48.852;9.152;2023-07-20T13:49:31;26.67;34.32
65972;SHT31;52726;48.852;9.152;2023-07-20T13:51:57;26.18;34.62
65972;SHT31;52726;48.852;9.152;2023-07-20T13:54:24;26.18;35.72
65972;SHT31;52726;48.852;9.152;2023-07-20T13:56:49;26.31;35.01
65972;SHT31;52726;48.852;9.152;2023-07-20T13:59:15;26.61;33.74
65972;SHT31;52726;48.852;9.152;2023-07-20T14:01:40;26.47;35.31
65972;SHT31;52726;48.852;9.152;2023-07-20T14:04:06;26.32;34.49
65972;SHT31;52726;48.852;9.152;2023-07-20T14:06:33;26.55;34.95
65972;SHT31;52726;48.852;9.152;2023-07-20T14:08:59;26.49;34.58
65972;SHT31;52726;48.852;9.152;2023-07-20T14:11:25;26.61;33.05
65972;SHT31;52726;48.852;9.152;2023-07-20T14:13:51;26.38;32.66
65972;SHT31;52726;48.852;9.152;2023-07-20T14:16:19;26.35;33.13
65972;SHT31;52726;48.852;9.152;2023-07-20T14:18:44;26.30;33.47
65972;SHT31;52726;48.852;9.152;2023-07-20T14:21:12;26.42;33.05
65972;SHT31;52726;48.852;9.152;2023-07-20T14:23:38;26.85;33.54
65972;SHT31;52726;48.852;9.152;2023-07-20T14:26:03;26.80;34.93
65972;SHT31;52726;48.852;9.152;2023-07-20T14:28:31;26.79;31.78
65972;SHT31;52726;48.852;9.152;2023-07-20T14:30:57;26.89;33.76
65972;SHT31;52726;48.852;9.152;2023-07-20T14:33:42;26.68;32.00
65972;SHT31;52726;48.852;9.152;2023-07-20T14:36:08;26.67;33.01
65972;SHT31;52726;48.852;9.152;2023-07-20T14:38:34;26.61;32.35
65972;SHT31;52726;48.852;9.152;2023-07-20T14:41:03;26.76;32.05
65972;SHT31;52726;48.852;9.152;2023-07-20T14:43:29;26.49;32.04
65972;SHT31;52726;48.852;9.152;2023-07-20T14:45:58;26.34;31.53
65972;SHT31;52726;48.852;9.152;2023-07-20T14:48:23;26.45;33.22
65972;SHT31;52726;48.852;9.152;2023-07-20T14:50:48;26.49;31.66
65972;SHT31;52726;48.852;9.152;2023-07-20T14:53:14;26.59;31.50
65972;SHT31;52726;48.852;9.152;2023-07-20T14:55:41;26.51;33.94
65972;SHT31;52726;48.852;9.152;2023-07-20T14:58:07;26.61;32.88
65972;SHT31;52726;48.852;9.152;2023-07-20T15:00:32;26.28;32.41
65972;SHT31;52726;48.852;9.152;2023-07-20T15:02:57;26.31;32.08
65972;SHT31;52726;48.852;9.152;2023-07-20T15:05:26;26.31;33.47
65972;SHT31;52726;48.852;9.152;2023-07-20T15:08:02;26.56;34.62
65972;SHT31;52726;48.852;9.152;2023-07-20T15:10:28;26.48;34.99
65972;SHT31;52726;48.852;9.152;2023-07-20T15:16:12;26.78;32.21
65972;SHT31;52726;48.852;9.152;2023-07-20T15:18:37;26.71;32.52
65972;SHT31;52726;48.852;9.152;2023-07-20T15:21:03;26.32;32.23
65972;SHT31;52726;48.852;9.152;2023-07-20T15:23:28;26.21;33.07
65972;SHT31;52726;48.852;9.152;2023-07-20T15:25:54;26.34;32.96
65972;SHT31;52726;48.852;9.152;2023-07-20T15:31:42;26.47;33.14
65972;SHT31;52726;48.852;9.152;2023-07-20T15:34:07;26.61;31.99
65972;SHT31;52726;48.852;9.152;2023-07-20T15:36:33;26.59;33.02
65972;SHT31;52726;48.852;9.152;2023-07-20T15:38:58;26.42;33.41
65972;SHT31;52726;48.852;9.152;2023-07-20T15:41:23;26.45;35.45
65972;SHT31;52726;48.852;9.152;2023-07-20T15:43:49;26.67;35.20
65972;SHT31;52726;48.852;9.152;2023-07-20T15:48:43;26.08;34.27
65972;SHT31;52726;48.852;9.152;2023-07-20T15:54:31;25.76;34.47
65972;SHT31;52726;48.852;9.152;2023-07-20T15:56:56;25.34;34.29
65972;SHT31;52726;48.852;9.152;2023-07-20T15:59:22;25.35;33.50
65972;SHT31;52726;48.852;9.152;2023-07-20T16:01:47;25.34;33.53
65972;SHT31;52726;48.852;9.152;2023-07-20T16:04:13;25.48;34.46
65972;SHT31;52726;48.852;9.152;2023-07-20T16:06:40;25.53;33.65